Date,TemperatureHighF,TemperatureAvgF,TemperatureLowF,DewpointHighF,DewpointAvgF,DewpointLowF,HumidityHigh,HumidityAvg,HumidityLow,PressureMaxIn,PressureMinIn,WindSpeedMaxMPH,WindSpeedAvgMPH,GustSpeedMaxMPH,PrecipitationSumIn
2013-2-1,56.8,39.9,21.7,25.2,21.2,17.2,86,52,22,30.13,30.00,10,3,0,0.00
2013-2-2,57.0,42.7,28.2,26.4,22.3,18.6,86,47,25,30.25,30.13,10,3,0,0.00
2013-2-3,55.0,41.9,27.7,31.5,23.7,20.4,86,50,27,30.16,29.83,10,3,0,0.00
2013-2-4,58.6,45.7,33.3,31.6,26.4,18.3,82,50,22,29.97,29.83,10,4,0,0.00
2013-2-5,62.4,44.2,28.8,26.4,20.6,17.5,70,42,20,29.95,29.81,10,3,0,0.00
2013-2-6,63.0,45.2,25.9,30.8,23.5,17.7,75,44,28,29.85,29.68,10,4,0,0.00
2013-2-7,57.7,44.5,30.9,28.7,22.2,12.2,75,44,20,30.01,29.84,6,2,0,0.00
2013-2-8,58.8,45.1,33.8,26.7,22.8,19.5,57,42,28,29.96,29.58,19,5,0,0.00
2013-2-9,50.0,36.4,26.2,25.6,17.2,6.0,68,47,22,29.66,29.44,28,9,0,1.13
2013-2-10,45.0,34.6,26.6,24.2,16.2,12.1,79,49,27,29.78,29.65,13,4,0,0.00
2013-2-11,48.0,33.2,20.3,35.6,19.1,5.5,98,63,18,29.85,29.70,18,4,0,0.00
2013-2-12,43.9,33.0,23.2,22.9,13.6,6.5,76,48,21,30.01,29.76,15,7,0,0.00
2013-2-13,50.9,35.1,17.6,18.2,13.8,8.4,68,44,25,30.01,29.86,16,6,0,0.00
2013-2-14,54.7,40.0,24.1,21.6,18.5,15.0,69,44,24,30.06,29.87,14,6,0,0.00
2013-2-15,53.8,40.2,23.2,24.5,16.1,5.6,93,44,14,30.22,30.05,20,5,0,0.00
2013-2-16,60.6,40.5,21.9,15.9,8.4,-0.4,62,30,11,30.28,29.98,9,2,0,0.00
2013-2-17,60.8,42.8,23.7,10.5,6.5,1.5,45,24,12,29.98,29.53,19,5,0,0.00
2013-2-18,54.9,42.9,31.3,19.3,1.9,-11.8,51,21,7,29.92,29.63,18,6,0,0.00
2013-2-19,61.0,42.3,23.0,37.2,10.2,-7.9,75,31,12,29.92,29.55,21,6,0,0.00
2013-2-20,53.1,43.4,32.7,37.7,30.6,17.7,84,64,25,29.57,29.31,19,7,0,0.00
2013-2-21,48.9,38.0,29.5,31.0,24.6,20.4,99,62,34,29.70,29.35,18,7,0,0.00
2013-2-22,48.2,35.8,26.4,27.0,20.9,14.3,83,57,29,29.88,29.69,17,5,0,0.00
2013-2-23,51.1,35.5,17.6,20.2,13.6,10.3,73,43,22,29.89,29.52,13,3,0,0.00
2013-2-24,44.2,35.4,29.1,26.3,16.2,6.2,89,48,26,29.70,29.45,19,9,0,0.00
2013-2-25,51.1,37.6,26.1,26.1,10.8,0.7,89,38,15,29.90,29.70,14,6,0,0.00
2013-2-26,51.3,36.8,20.5,18.5,6.4,-6.5,69,32,13,29.91,29.64,21,8,0,0.01
2013-2-27,47.8,35.3,19.8,12.6,6.9,-0.2,65,32,18,30.12,29.92,8,3,0,0.00
2013-2-28,55.4,39.3,23.7,10.9,5.5,0.9,45,26,12,30.17,30.04,12,6,0,0.00